RJSM(METAR)
04/28 17:00
METAR RJSM 280800Z 26011KT 9999 FEW030 SCT040 14/M01 Q1004 RMK
1CU030 3CU040 A2966=
戻る
トップページへ戻る
IMOC Co,.Ltd.